sensor_id;sensor_type;location;lat;lon;timestamp;pressure;altitude;pressure_sealevel;temperature;humidity
21828;BME280;11076;47.942;11.804;2023-02-13T00:00:53;96099.44;;;0.50;100.00
21828;BME280;11076;47.942;11.804;2023-02-13T00:05:55;96108.78;;;0.54;100.00
21828;BME280;11076;47.942;11.804;2023-02-13T00:10:58;96105.41;;;0.52;100.00
21828;BME280;11076;47.942;11.804;2023-02-13T00:16:03;96103.50;;;0.54;100.00
21828;BME280;11076;47.942;11.804;2023-02-13T00:21:08;96090.34;;;0.54;100.00
21828;BME280;11076;47.942;11.804;2023-02-13T00:26:13;96095.09;;;0.49;100.00
21828;BME280;11076;47.942;11.804;2023-02-13T00:31:19;96089.13;;;0.47;100.00
21828;BME280;11076;47.942;11.804;2023-02-13T00:36:23;96084.84;;;0.46;100.00
21828;BME280;11076;47.942;11.804;2023-02-13T00:41:26;96090.31;;;0.43;100.00
21828;BME280;11076;47.942;11.804;2023-02-13T00:46:29;96078.34;;;0.39;100.00
21828;BME280;11076;47.942;11.804;2023-02-13T00:51:31;96073.06;;;0.39;100.00
21828;BME280;11076;47.942;11.804;2023-02-13T00:56:34;96076.88;;;0.35;100.00
21828;BME280;11076;47.942;11.804;2023-02-13T01:01:36;96080.72;;;0.31;100.00
21828;BME280;11076;47.942;11.804;2023-02-13T01:06:38;96085.25;;;0.29;100.00
21828;BME280;11076;47.942;11.804;2023-02-13T01:11:41;96082.63;;;0.29;100.00
21828;BME280;11076;47.942;11.804;2023-02-13T01:16:44;96080.09;;;0.27;100.00
21828;BME280;11076;47.942;11.804;2023-02-13T01:21:46;96075.06;;;0.24;100.00
21828;BME280;11076;47.942;11.804;2023-02-13T01:26:48;96065.84;;;0.18;100.00
21828;BME280;11076;47.942;11.804;2023-02-13T01:31:51;96055.31;;;0.18;100.00
21828;BME280;11076;47.942;11.804;2023-02-13T01:36:53;96054.81;;;0.13;100.00
21828;BME280;11076;47.942;11.804;2023-02-13T01:41:56;96064.38;;;0.14;100.00
21828;BME280;11076;47.942;11.804;2023-02-13T01:46:59;96058.88;;;0.17;100.00
21828;BME280;11076;47.942;11.804;2023-02-13T01:52:01;96062.47;;;0.16;100.00
21828;BME280;11076;47.942;11.804;2023-02-13T01:57:12;96063.88;;;0.09;100.00
21828;BME280;11076;47.942;11.804;2023-02-13T02:02:17;96060.41;;;0.09;100.00
21828;BME280;11076;47.942;11.804;2023-02-13T02:07:23;96058.72;;;0.08;100.00
21828;BME280;11076;47.942;11.804;2023-02-13T02:12:35;96062.44;;;0.05;100.00
21828;BME280;11076;47.942;11.804;2023-02-13T02:17:40;96062.44;;;0.05;100.00
21828;BME280;11076;47.942;11.804;2023-02-13T02:39:13;96078.66;;;-0.01;100.00
21828;BME280;11076;47.942;11.804;2023-02-13T02:49:31;96083.00;;;0.00;100.00
21828;BME280;11076;47.942;11.804;2023-02-13T03:00:34;96081.28;;;-0.01;100.00
21828;BME280;11076;47.942;11.804;2023-02-13T03:05:59;96090.38;;;-0.05;100.00
21828;BME280;11076;47.942;11.804;2023-02-13T03:11:12;96086.16;;;-0.08;100.00
21828;BME280;11076;47.942;11.804;2023-02-13T03:16:38;96085.09;;;-0.05;100.00
21828;BME280;11076;47.942;11.804;2023-02-13T03:38:31;96095.66;;;-0.18;100.00
21828;BME280;11076;47.942;11.804;2023-02-13T03:44:31;96083.38;;;-0.17;100.00
21828;BME280;11076;47.942;11.804;2023-02-13T03:49:11;96094.63;;;-0.15;100.00
21828;BME280;11076;47.942;11.804;2023-02-13T04:00:01;96089.53;;;-0.06;100.00
21828;BME280;11076;47.942;11.804;2023-02-13T04:05:21;96102.16;;;-0.11;100.00
21828;BME280;11076;47.942;11.804;2023-02-13T04:10:33;96101.31;;;-0.11;100.00
21828;BME280;11076;47.942;11.804;2023-02-13T04:15:42;96105.84;;;-0.13;100.00
21828;BME280;11076;47.942;11.804;2023-02-13T04:20:48;96094.72;;;-0.17;100.00
21828;BME280;11076;47.942;11.804;2023-02-13T04:25:53;96094.28;;;-0.11;100.00
21828;BME280;11076;47.942;11.804;2023-02-13T04:30:57;96095.63;;;-0.05;100.00
21828;BME280;11076;47.942;11.804;2023-02-13T04:35:59;96082.19;;;-0.13;100.00
21828;BME280;11076;47.942;11.804;2023-02-13T04:41:02;96082.41;;;-0.16;100.00
21828;BME280;11076;47.942;11.804;2023-02-13T04:46:04;96078.31;;;0.04;100.00
21828;BME280;11076;47.942;11.804;2023-02-13T04:51:06;96080.63;;;0.08;100.00
21828;BME280;11076;47.942;11.804;2023-02-13T04:56:09;96088.28;;;0.11;100.00
21828;BME280;11076;47.942;11.804;2023-02-13T05:01:15;96093.50;;;0.00;100.00
21828;BME280;11076;47.942;11.804;2023-02-13T05:06:18;96083.19;;;-0.03;100.00
21828;BME280;11076;47.942;11.804;2023-02-13T05:11:21;96084.84;;;-0.02;100.00
21828;BME280;11076;47.942;11.804;2023-02-13T05:16:23;96074.34;;;-0.02;100.00
21828;BME280;11076;47.942;11.804;2023-02-13T05:21:26;96078.78;;;-0.03;100.00
21828;BME280;11076;47.942;11.804;2023-02-13T05:26:47;96076.25;;;-0.04;100.00
21828;BME280;11076;47.942;11.804;2023-02-13T05:31:52;96082.03;;;0.01;100.00
21828;BME280;11076;47.942;11.804;2023-02-13T05:36:55;96079.31;;;-0.10;100.00
21828;BME280;11076;47.942;11.804;2023-02-13T05:41:57;96091.03;;;-0.14;100.00
21828;BME280;11076;47.942;11.804;2023-02-13T05:46:59;96095.50;;;-0.04;100.00
21828;BME280;11076;47.942;11.804;2023-02-13T05:52:02;96094.97;;;0.04;100.00
21828;BME280;11076;47.942;11.804;2023-02-13T05:57:04;96090.69;;;0.14;100.00
21828;BME280;11076;47.942;11.804;2023-02-13T06:02:07;96102.66;;;0.18;100.00
21828;BME280;11076;47.942;11.804;2023-02-13T06:07:09;96107.69;;;0.22;100.00
21828;BME280;11076;47.942;11.804;2023-02-13T06:12:11;96105.31;;;0.30;100.00
21828;BME280;11076;47.942;11.804;2023-02-13T06:17:14;96113.47;;;0.27;100.00
21828;BME280;11076;47.942;11.804;2023-02-13T06:22:16;96115.94;;;0.17;100.00
21828;BME280;11076;47.942;11.804;2023-02-13T06:27:18;96118.94;;;0.24;100.00
21828;BME280;11076;47.942;11.804;2023-02-13T06:32:21;96135.22;;;0.29;100.00
21828;BME280;11076;47.942;11.804;2023-02-13T06:37:23;96132.72;;;0.27;100.00
21828;BME280;11076;47.942;11.804;2023-02-13T06:42:25;96125.94;;;0.36;100.00
21828;BME280;11076;47.942;11.804;2023-02-13T06:47:28;96145.31;;;0.35;100.00
21828;BME280;11076;47.942;11.804;2023-02-13T06:52:30;96152.84;;;0.39;100.00
21828;BME280;11076;47.942;11.804;2023-02-13T06:57:32;96141.31;;;0.53;100.00
21828;BME280;11076;47.942;11.804;2023-02-13T07:02:36;96151.56;;;0.45;100.00
21828;BME280;11076;47.942;11.804;2023-02-13T07:07:40;96160.09;;;0.49;100.00
21828;BME280;11076;47.942;11.804;2023-02-13T07:12:42;96154.97;;;0.58;100.00
21828;BME280;11076;47.942;11.804;2023-02-13T07:17:54;96167.16;;;0.59;100.00
21828;BME280;11076;47.942;11.804;2023-02-13T07:23:01;96177.59;;;0.37;100.00
21828;BME280;11076;47.942;11.804;2023-02-13T07:28:05;96178.28;;;0.52;100.00
21828;BME280;11076;47.942;11.804;2023-02-13T07:33:08;96183.56;;;0.52;100.00
21828;BME280;11076;47.942;11.804;2023-02-13T07:38:10;96178.66;;;0.58;100.00
21828;BME280;11076;47.942;11.804;2023-02-13T07:43:13;96190.44;;;0.77;100.00
21828;BME280;11076;47.942;11.804;2023-02-13T07:48:15;96190.03;;;0.94;100.00
21828;BME280;11076;47.942;11.804;2023-02-13T07:53:17;96201.66;;;0.92;100.00
21828;BME280;11076;47.942;11.804;2023-02-13T07:58:20;96201.34;;;1.08;100.00
21828;BME280;11076;47.942;11.804;2023-02-13T08:03:22;96204.69;;;1.10;100.00
21828;BME280;11076;47.942;11.804;2023-02-13T08:08:25;96209.72;;;1.02;100.00
21828;BME280;11076;47.942;11.804;2023-02-13T08:13:27;96214.97;;;1.13;100.00
21828;BME280;11076;47.942;11.804;2023-02-13T08:18:30;96208.03;;;1.12;100.00
21828;BME280;11076;47.942;11.804;2023-02-13T08:23:32;96202.06;;;1.21;100.00
21828;BME280;11076;47.942;11.804;2023-02-13T08:28:35;96200.88;;;1.25;100.00
21828;BME280;11076;47.942;11.804;2023-02-13T08:33:38;96215.41;;;1.42;100.00
21828;BME280;11076;47.942;11.804;2023-02-13T08:38:42;96222.41;;;1.19;100.00
21828;BME280;11076;47.942;11.804;2023-02-13T08:43:44;96220.53;;;1.32;100.00
21828;BME280;11076;47.942;11.804;2023-02-13T08:48:47;96223.56;;;1.73;100.00
21828;BME280;11076;47.942;11.804;2023-02-13T08:53:49;96220.47;;;1.68;100.00
21828;BME280;11076;47.942;11.804;2023-02-13T08:58:51;96221.28;;;2.02;100.00
21828;BME280;11076;47.942;11.804;2023-02-13T09:03:54;96218.38;;;2.28;100.00
21828;BME280;11076;47.942;11.804;2023-02-13T09:08:56;96206.59;;;2.43;100.00
21828;BME280;11076;47.942;11.804;2023-02-13T09:13:59;96204.00;;;2.64;100.00
21828;BME280;11076;47.942;11.804;2023-02-13T09:19:01;96202.97;;;2.44;100.00
21828;BME280;11076;47.942;11.804;2023-02-13T09:24:07;96208.47;;;2.52;100.00
21828;BME280;11076;47.942;11.804;2023-02-13T09:29:09;96215.06;;;2.58;100.00
21828;BME280;11076;47.942;11.804;2023-02-13T09:34:12;96218.00;;;2.76;100.00
21828;BME280;11076;47.942;11.804;2023-02-13T09:39:14;96221.22;;;2.79;100.00
21828;BME280;11076;47.942;11.804;2023-02-13T09:44:35;96229.19;;;2.68;100.00
21828;BME280;11076;47.942;11.804;2023-02-13T09:49:44;96219.59;;;2.99;100.00
21828;BME280;11076;47.942;11.804;2023-02-13T09:54:47;96216.91;;;3.11;100.00
21828;BME280;11076;47.942;11.804;2023-02-13T10:21:04;96217.69;;;4.05;100.00
21828;BME280;11076;47.942;11.804;2023-02-13T10:26:16;96212.00;;;4.19;100.00
21828;BME280;11076;47.942;11.804;2023-02-13T10:31:22;96206.91;;;4.28;100.00
21828;BME280;11076;47.942;11.804;2023-02-13T10:36:30;96213.69;;;4.21;100.00
21828;BME280;11076;47.942;11.804;2023-02-13T10:47:17;96202.75;;;4.54;100.00
21828;BME280;11076;47.942;11.804;2023-02-13T10:58:13;96197.19;;;4.77;100.00
21828;BME280;11076;47.942;11.804;2023-02-13T11:03:23;96194.84;;;4.93;100.00
21828;BME280;11076;47.942;11.804;2023-02-13T11:08:31;96199.28;;;4.83;98.24
21828;BME280;11076;47.942;11.804;2023-02-13T11:13:34;96187.59;;;4.76;97.03
21828;BME280;11076;47.942;11.804;2023-02-13T11:18:39;96190.50;;;4.73;96.58
21828;BME280;11076;47.942;11.804;2023-02-13T11:23:44;96188.84;;;4.62;94.71
21828;BME280;11076;47.942;11.804;2023-02-13T11:28:55;96183.25;;;4.85;93.93
21828;BME280;11076;47.942;11.804;2023-02-13T11:33:59;96182.97;;;4.78;95.83
21828;BME280;11076;47.942;11.804;2023-02-13T11:39:20;96179.34;;;5.18;97.04
21828;BME280;11076;47.942;11.804;2023-02-13T11:44:30;96178.50;;;5.27;96.75
21828;BME280;11076;47.942;11.804;2023-02-13T11:49:36;96183.38;;;5.32;96.97
21828;BME280;11076;47.942;11.804;2023-02-13T11:54:44;96171.06;;;5.31;94.77
21828;BME280;11076;47.942;11.804;2023-02-13T11:59:49;96176.00;;;4.96;92.14
21828;BME280;11076;47.942;11.804;2023-02-13T12:04:54;96180.47;;;4.96;94.28
21828;BME280;11076;47.942;11.804;2023-02-13T12:15:25;96178.66;;;4.77;92.72
21828;BME280;11076;47.942;11.804;2023-02-13T12:20:39;96180.19;;;4.70;92.16
21828;BME280;11076;47.942;11.804;2023-02-13T12:25:56;96174.91;;;4.70;92.47
21828;BME280;11076;47.942;11.804;2023-02-13T12:31:35;96156.75;;;4.46;90.50
21828;BME280;11076;47.942;11.804;2023-02-13T12:47:21;96144.50;;;4.84;91.77
21828;BME280;11076;47.942;11.804;2023-02-13T12:58:59;96146.56;;;4.70;92.48
21828;BME280;11076;47.942;11.804;2023-02-13T13:30:31;96129.81;;;4.89;91.94
21828;BME280;11076;47.942;11.804;2023-02-13T13:35:38;96137.50;;;4.92;91.92
21828;BME280;11076;47.942;11.804;2023-02-13T13:41:11;96132.75;;;5.06;92.77
21828;BME280;11076;47.942;11.804;2023-02-13T13:47:18;96127.09;;;5.28;91.60
21828;BME280;11076;47.942;11.804;2023-02-13T13:52:18;96131.59;;;5.28;91.57
21828;BME280;11076;47.942;11.804;2023-02-13T14:02:48;96134.22;;;5.75;90.41
21828;BME280;11076;47.942;11.804;2023-02-13T14:08:00;96122.34;;;5.32;90.76
21828;BME280;11076;47.942;11.804;2023-02-13T14:13:02;96131.13;;;5.32;91.86
21828;BME280;11076;47.942;11.804;2023-02-13T14:28:30;96128.00;;;5.00;92.64
21828;BME280;11076;47.942;11.804;2023-02-13T14:33:33;96124.13;;;4.65;94.23
21828;BME280;11076;47.942;11.804;2023-02-13T14:38:36;96131.25;;;4.64;94.49
21828;BME280;11076;47.942;11.804;2023-02-13T14:43:49;96124.91;;;4.07;95.05
21828;BME280;11076;47.942;11.804;2023-02-13T14:49:05;96128.53;;;4.15;95.95
21828;BME280;11076;47.942;11.804;2023-02-13T14:54:23;96132.19;;;4.24;96.35
21828;BME280;11076;47.942;11.804;2023-02-13T14:59:29;96126.16;;;4.03;96.27
21828;BME280;11076;47.942;11.804;2023-02-13T15:04:41;96124.72;;;3.89;96.73
21828;BME280;11076;47.942;11.804;2023-02-13T15:09:51;96123.72;;;3.90;96.10
21828;BME280;11076;47.942;11.804;2023-02-13T15:14:55;96129.25;;;3.67;96.91
21828;BME280;11076;47.942;11.804;2023-02-13T15:25:38;96125.34;;;3.10;98.42
21828;BME280;11076;47.942;11.804;2023-02-13T15:30:40;96119.59;;;3.26;98.66
21828;BME280;11076;47.942;11.804;2023-02-13T15:36:02;96130.47;;;2.81;99.59
21828;BME280;11076;47.942;11.804;2023-02-13T15:41:20;96122.72;;;2.68;99.78
21828;BME280;11076;47.942;11.804;2023-02-13T15:46:26;96112.69;;;2.50;100.00
21828;BME280;11076;47.942;11.804;2023-02-13T15:51:31;96118.44;;;2.55;100.00
21828;BME280;11076;47.942;11.804;2023-02-13T15:56:36;96114.91;;;2.45;100.00
21828;BME280;11076;47.942;11.804;2023-02-13T16:01:40;96116.47;;;2.36;100.00
21828;BME280;11076;47.942;11.804;2023-02-13T16:06:46;96118.25;;;2.47;100.00
21828;BME280;11076;47.942;11.804;2023-02-13T16:11:50;96126.41;;;2.44;100.00
21828;BME280;11076;47.942;11.804;2023-02-13T16:17:02;96128.00;;;2.35;100.00
21828;BME280;11076;47.942;11.804;2023-02-13T16:27:23;96124.09;;;2.18;100.00
21828;BME280;11076;47.942;11.804;2023-02-13T16:32:30;96127.72;;;2.06;100.00
21828;BME280;11076;47.942;11.804;2023-02-13T16:37:33;96134.00;;;2.05;100.00
21828;BME280;11076;47.942;11.804;2023-02-13T16:42:35;96135.94;;;1.92;100.00
21828;BME280;11076;47.942;11.804;2023-02-13T16:47:38;96139.53;;;1.79;100.00
21828;BME280;11076;47.942;11.804;2023-02-13T16:52:40;96144.72;;;1.70;100.00
21828;BME280;11076;47.942;11.804;2023-02-13T16:57:43;96143.16;;;1.56;100.00
21828;BME280;11076;47.942;11.804;2023-02-13T17:02:47;96148.19;;;1.48;100.00
21828;BME280;11076;47.942;11.804;2023-02-13T17:07:52;96149.88;;;1.37;100.00
21828;BME280;11076;47.942;11.804;2023-02-13T17:13:05;96146.28;;;1.38;100.00
21828;BME280;11076;47.942;11.804;2023-02-13T17:18:13;96143.41;;;1.42;100.00
21828;BME280;11076;47.942;11.804;2023-02-13T17:23:21;96146.75;;;1.32;100.00
21828;BME280;11076;47.942;11.804;2023-02-13T17:28:26;96153.41;;;1.03;100.00
21828;BME280;11076;47.942;11.804;2023-02-13T17:33:31;96160.59;;;1.01;100.00
21828;BME280;11076;47.942;11.804;2023-02-13T17:38:35;96160.94;;;0.96;100.00
21828;BME280;11076;47.942;11.804;2023-02-13T17:43:38;96169.91;;;0.93;100.00
21828;BME280;11076;47.942;11.804;2023-02-13T17:48:40;96157.66;;;0.81;100.00
21828;BME280;11076;47.942;11.804;2023-02-13T17:53:42;96153.22;;;0.82;100.00
21828;BME280;11076;47.942;11.804;2023-02-13T17:58:45;96148.09;;;0.80;100.00
21828;BME280;11076;47.942;11.804;2023-02-13T18:03:48;96154.56;;;0.87;100.00
21828;BME280;11076;47.942;11.804;2023-02-13T18:08:50;96154.41;;;0.66;100.00
21828;BME280;11076;47.942;11.804;2023-02-13T18:13:53;96157.88;;;0.67;100.00
21828;BME280;11076;47.942;11.804;2023-02-13T18:18:55;96148.53;;;0.63;100.00
21828;BME280;11076;47.942;11.804;2023-02-13T18:23:57;96147.69;;;0.62;100.00
21828;BME280;11076;47.942;11.804;2023-02-13T18:29:00;96142.13;;;0.78;100.00
21828;BME280;11076;47.942;11.804;2023-02-13T18:34:02;96144.72;;;0.67;100.00
21828;BME280;11076;47.942;11.804;2023-02-13T18:39:04;96148.69;;;0.72;100.00
21828;BME280;11076;47.942;11.804;2023-02-13T18:44:09;96147.28;;;0.55;100.00
21828;BME280;11076;47.942;11.804;2023-02-13T18:49:18;96141.81;;;0.58;100.00
21828;BME280;11076;47.942;11.804;2023-02-13T18:54:20;96151.34;;;0.48;100.00
21828;BME280;11076;47.942;11.804;2023-02-13T18:59:23;96158.72;;;0.43;100.00
21828;BME280;11076;47.942;11.804;2023-02-13T19:04:25;96155.84;;;0.35;100.00
21828;BME280;11076;47.942;11.804;2023-02-13T19:09:28;96151.03;;;0.29;100.00
21828;BME280;11076;47.942;11.804;2023-02-13T19:14:30;96156.72;;;0.23;100.00
21828;BME280;11076;47.942;11.804;2023-02-13T19:19:32;96164.97;;;0.18;100.00
21828;BME280;11076;47.942;11.804;2023-02-13T19:24:35;96159.09;;;0.14;100.00
21828;BME280;11076;47.942;11.804;2023-02-13T19:29:37;96159.72;;;0.18;100.00
21828;BME280;11076;47.942;11.804;2023-02-13T19:34:40;96156.00;;;0.21;100.00
21828;BME280;11076;47.942;11.804;2023-02-13T19:39:42;96151.47;;;0.23;100.00
21828;BME280;11076;47.942;11.804;2023-02-13T19:44:44;96157.56;;;0.23;100.00
21828;BME280;11076;47.942;11.804;2023-02-13T19:49:47;96157.66;;;0.22;100.00
21828;BME280;11076;47.942;11.804;2023-02-13T19:54:51;96158.75;;;0.19;100.00
21828;BME280;11076;47.942;11.804;2023-02-13T19:59:55;96150.84;;;0.19;100.00
21828;BME280;11076;47.942;11.804;2023-02-13T20:04:57;96141.63;;;0.13;100.00
21828;BME280;11076;47.942;11.804;2023-02-13T20:09:59;96144.75;;;0.18;100.00
21828;BME280;11076;47.942;11.804;2023-02-13T20:15:03;96156.00;;;0.21;100.00
21828;BME280;11076;47.942;11.804;2023-02-13T20:20:06;96155.50;;;0.15;100.00
21828;BME280;11076;47.942;11.804;2023-02-13T20:25:08;96160.13;;;0.12;100.00
21828;BME280;11076;47.942;11.804;2023-02-13T20:30:14;96158.09;;;0.04;100.00
21828;BME280;11076;47.942;11.804;2023-02-13T20:35:17;96153.22;;;0.11;100.00
21828;BME280;11076;47.942;11.804;2023-02-13T20:40:19;96153.81;;;0.14;100.00
21828;BME280;11076;47.942;11.804;2023-02-13T20:45:21;96154.72;;;0.02;100.00
21828;BME280;11076;47.942;11.804;2023-02-13T20:50:24;96159.00;;;0.03;100.00
21828;BME280;11076;47.942;11.804;2023-02-13T20:55:28;96149.66;;;-0.01;100.00
21828;BME280;11076;47.942;11.804;2023-02-13T21:00:30;96148.50;;;0.03;100.00
21828;BME280;11076;47.942;11.804;2023-02-13T21:05:33;96146.53;;;-0.06;100.00
21828;BME280;11076;47.942;11.804;2023-02-13T21:10:36;96152.22;;;-0.12;100.00
21828;BME280;11076;47.942;11.804;2023-02-13T21:15:39;96142.38;;;-0.22;100.00
21828;BME280;11076;47.942;11.804;2023-02-13T21:20:41;96140.16;;;-0.15;100.00
21828;BME280;11076;47.942;11.804;2023-02-13T21:25:43;96143.28;;;-0.10;100.00
21828;BME280;11076;47.942;11.804;2023-02-13T21:30:46;96128.69;;;-0.14;100.00
21828;BME280;11076;47.942;11.804;2023-02-13T21:35:49;96130.78;;;-0.19;100.00
21828;BME280;11076;47.942;11.804;2023-02-13T21:40:52;96120.34;;;-0.32;100.00
21828;BME280;11076;47.942;11.804;2023-02-13T21:45:54;96107.13;;;-0.19;100.00
21828;BME280;11076;47.942;11.804;2023-02-13T21:50:56;96105.56;;;-0.22;100.00
21828;BME280;11076;47.942;11.804;2023-02-13T21:56:03;96105.69;;;-0.23;100.00
21828;BME280;11076;47.942;11.804;2023-02-13T22:06:21;96094.81;;;-0.18;100.00
21828;BME280;11076;47.942;11.804;2023-02-13T22:11:24;96095.91;;;-0.21;100.00
21828;BME280;11076;47.942;11.804;2023-02-13T22:16:28;96084.47;;;-0.09;100.00
21828;BME280;11076;47.942;11.804;2023-02-13T22:21:31;96081.56;;;0.07;100.00
21828;BME280;11076;47.942;11.804;2023-02-13T22:26:36;96085.44;;;-0.10;100.00
21828;BME280;11076;47.942;11.804;2023-02-13T22:31:39;96092.88;;;-0.04;100.00
21828;BME280;11076;47.942;11.804;2023-02-13T22:36:42;96083.84;;;-0.12;100.00
21828;BME280;11076;47.942;11.804;2023-02-13T22:41:44;96086.94;;;-0.18;100.00
21828;BME280;11076;47.942;11.804;2023-02-13T22:46:46;96076.97;;;-0.26;100.00
21828;BME280;11076;47.942;11.804;2023-02-13T22:51:49;96076.78;;;-0.36;100.00
21828;BME280;11076;47.942;11.804;2023-02-13T22:56:51;96080.25;;;-0.59;100.00
21828;BME280;11076;47.942;11.804;2023-02-13T23:01:53;96082.22;;;-0.50;100.00
21828;BME280;11076;47.942;11.804;2023-02-13T23:06:56;96074.84;;;-0.45;100.00
21828;BME280;11076;47.942;11.804;2023-02-13T23:11:59;96074.66;;;-0.55;100.00
21828;BME280;11076;47.942;11.804;2023-02-13T23:17:20;96080.00;;;-0.56;100.00
21828;BME280;11076;47.942;11.804;2023-02-13T23:22:41;96084.88;;;-0.63;100.00
21828;BME280;11076;47.942;11.804;2023-02-13T23:27:43;96076.25;;;-0.65;100.00
21828;BME280;11076;47.942;11.804;2023-02-13T23:32:45;96083.31;;;-0.66;100.00
21828;BME280;11076;47.942;11.804;2023-02-13T23:37:48;96083.00;;;-0.74;100.00
21828;BME280;11076;47.942;11.804;2023-02-13T23:42:50;96072.63;;;-0.75;100.00
21828;BME280;11076;47.942;11.804;2023-02-13T23:47:52;96081.09;;;-0.72;100.00
21828;BME280;11076;47.942;11.804;2023-02-13T23:52:57;96067.03;;;-0.84;100.00
21828;BME280;11076;47.942;11.804;2023-02-13T23:58:00;96089.63;;;-0.81;100.00
